Red Bay, Florida
Current Conditions -  °F | °C
As of 1:15 PM on Saturday 20 Dec 2014 (Local Time) from K54J Reporting Station
Overcast Overcast  
Wind Chill: 53°   Ceiling: 6500
Heat Index: 53°   Visibility: 10mi
Dew Point: 51°   Wind: 7mph
Humidity: 94%   Direction: 30°NNE
Pressure: 30.09"   Gusts: NA
Location:  30.678°N, 85.9545°W
Report Text: K54J 201915Z AUTO 03006KT 10SM OVC065 12/11 A3009 RMK AO2 T01150106
Loading
Personal Weather Stations






























Interactive Weather Map New forecast layout! Learn more

10-Day Weather Forecast

Advertisements
Track Severe Weather on mobile